sensor_id;sensor_type;location;lat;lon;timestamp;temperature;humidity
39103;DHT22;24847;48.218;16.414;2023-06-19T00:00:59;20.30;99.90
39103;DHT22;24847;48.218;16.414;2023-06-19T00:06:01;20.50;99.90
39103;DHT22;24847;48.218;16.414;2023-06-19T00:11:04;20.40;99.90
39103;DHT22;24847;48.218;16.414;2023-06-19T00:16:07;20.40;99.90
39103;DHT22;24847;48.218;16.414;2023-06-19T00:21:09;20.50;99.90
39103;DHT22;24847;48.218;16.414;2023-06-19T00:26:12;20.50;99.90
39103;DHT22;24847;48.218;16.414;2023-06-19T00:31:16;20.20;99.90
39103;DHT22;24847;48.218;16.414;2023-06-19T00:36:19;20.40;99.90
39103;DHT22;24847;48.218;16.414;2023-06-19T00:41:21;20.10;99.90
39103;DHT22;24847;48.218;16.414;2023-06-19T00:46:25;20.20;99.90
39103;DHT22;24847;48.218;16.414;2023-06-19T00:51:27;20.20;99.90
39103;DHT22;24847;48.218;16.414;2023-06-19T00:56:31;20.20;99.90
39103;DHT22;24847;48.218;16.414;2023-06-19T01:01:36;20.20;99.90
39103;DHT22;24847;48.218;16.414;2023-06-19T01:06:43;20.00;99.90
39103;DHT22;24847;48.218;16.414;2023-06-19T01:11:52;20.10;99.90
39103;DHT22;24847;48.218;16.414;2023-06-19T01:16:58;20.50;99.90
39103;DHT22;24847;48.218;16.414;2023-06-19T01:22:04;19.90;99.90
39103;DHT22;24847;48.218;16.414;2023-06-19T01:27:07;19.70;99.90
39103;DHT22;24847;48.218;16.414;2023-06-19T01:32:15;19.70;99.90
39103;DHT22;24847;48.218;16.414;2023-06-19T01:37:22;20.10;99.90
39103;DHT22;24847;48.218;16.414;2023-06-19T01:42:28;19.70;99.90
39103;DHT22;24847;48.218;16.414;2023-06-19T01:47:30;19.50;99.90
39103;DHT22;24847;48.218;16.414;2023-06-19T01:52:34;19.30;99.90
39103;DHT22;24847;48.218;16.414;2023-06-19T01:57:37;19.30;99.90
39103;DHT22;24847;48.218;16.414;2023-06-19T02:02:40;19.30;99.90
39103;DHT22;24847;48.218;16.414;2023-06-19T02:07:43;19.20;99.90
39103;DHT22;24847;48.218;16.414;2023-06-19T02:12:46;19.10;99.90
39103;DHT22;24847;48.218;16.414;2023-06-19T02:17:48;19.40;99.90
39103;DHT22;24847;48.218;16.414;2023-06-19T02:22:56;19.30;99.90
39103;DHT22;24847;48.218;16.414;2023-06-19T02:27:59;19.20;99.90
39103;DHT22;24847;48.218;16.414;2023-06-19T02:33:01;19.20;99.90
39103;DHT22;24847;48.218;16.414;2023-06-19T02:38:04;19.50;99.90
39103;DHT22;24847;48.218;16.414;2023-06-19T02:43:07;19.30;99.90
39103;DHT22;24847;48.218;16.414;2023-06-19T02:48:09;19.20;99.90
39103;DHT22;24847;48.218;16.414;2023-06-19T02:53:13;19.00;99.90
39103;DHT22;24847;48.218;16.414;2023-06-19T02:58:17;18.90;99.90
39103;DHT22;24847;48.218;16.414;2023-06-19T03:03:19;19.00;99.90
39103;DHT22;24847;48.218;16.414;2023-06-19T03:08:23;19.00;99.90
39103;DHT22;24847;48.218;16.414;2023-06-19T03:13:25;18.80;99.90
39103;DHT22;24847;48.218;16.414;2023-06-19T03:18:27;19.00;99.90
39103;DHT22;24847;48.218;16.414;2023-06-19T03:23:30;19.00;99.90
39103;DHT22;24847;48.218;16.414;2023-06-19T03:28:33;18.80;99.90
39103;DHT22;24847;48.218;16.414;2023-06-19T03:33:35;19.00;99.90
39103;DHT22;24847;48.218;16.414;2023-06-19T03:38:38;19.00;99.90
39103;DHT22;24847;48.218;16.414;2023-06-19T03:43:41;19.00;99.90
39103;DHT22;24847;48.218;16.414;2023-06-19T03:48:43;18.90;99.90
39103;DHT22;24847;48.218;16.414;2023-06-19T03:53:46;19.00;99.90
39103;DHT22;24847;48.218;16.414;2023-06-19T03:58:49;19.10;99.90
39103;DHT22;24847;48.218;16.414;2023-06-19T04:03:51;19.20;99.90
39103;DHT22;24847;48.218;16.414;2023-06-19T04:08:55;19.40;99.90
39103;DHT22;24847;48.218;16.414;2023-06-19T04:13:57;19.20;99.90
39103;DHT22;24847;48.218;16.414;2023-06-19T04:18:59;19.10;99.90
39103;DHT22;24847;48.218;16.414;2023-06-19T04:24:03;19.20;99.90
39103;DHT22;24847;48.218;16.414;2023-06-19T04:29:09;19.40;99.90
39103;DHT22;24847;48.218;16.414;2023-06-19T04:34:18;19.60;99.90
39103;DHT22;24847;48.218;16.414;2023-06-19T04:39:23;19.70;99.90
39103;DHT22;24847;48.218;16.414;2023-06-19T04:44:25;20.10;99.90
39103;DHT22;24847;48.218;16.414;2023-06-19T04:49:28;20.20;99.90
39103;DHT22;24847;48.218;16.414;2023-06-19T04:54:33;20.70;99.90
39103;DHT22;24847;48.218;16.414;2023-06-19T04:59:36;21.00;99.90
39103;DHT22;24847;48.218;16.414;2023-06-19T05:04:38;21.00;99.90
39103;DHT22;24847;48.218;16.414;2023-06-19T05:09:45;21.20;99.90
39103;DHT22;24847;48.218;16.414;2023-06-19T05:14:47;21.80;99.90
39103;DHT22;24847;48.218;16.414;2023-06-19T05:19:49;22.20;99.90
39103;DHT22;24847;48.218;16.414;2023-06-19T05:24:53;22.10;99.90
39103;DHT22;24847;48.218;16.414;2023-06-19T05:29:55;23.00;99.90
39103;DHT22;24847;48.218;16.414;2023-06-19T05:34:57;23.50;99.90
39103;DHT22;24847;48.218;16.414;2023-06-19T05:40:01;23.90;99.90
39103;DHT22;24847;48.218;16.414;2023-06-19T05:45:05;23.40;99.90
39103;DHT22;24847;48.218;16.414;2023-06-19T05:50:08;23.40;99.90
39103;DHT22;24847;48.218;16.414;2023-06-19T05:55:12;23.90;99.90
39103;DHT22;24847;48.218;16.414;2023-06-19T06:00:16;23.80;99.90
39103;DHT22;24847;48.218;16.414;2023-06-19T06:05:18;23.70;99.90
39103;DHT22;24847;48.218;16.414;2023-06-19T06:10:23;24.00;99.90
39103;DHT22;24847;48.218;16.414;2023-06-19T06:15:26;23.90;99.90
39103;DHT22;24847;48.218;16.414;2023-06-19T06:20:28;23.90;99.90
39103;DHT22;24847;48.218;16.414;2023-06-19T06:25:32;24.90;99.90
39103;DHT22;24847;48.218;16.414;2023-06-19T06:30:35;25.30;99.90
39103;DHT22;24847;48.218;16.414;2023-06-19T06:35:37;25.70;99.90
39103;DHT22;24847;48.218;16.414;2023-06-19T06:40:41;25.50;99.90
39103;DHT22;24847;48.218;16.414;2023-06-19T06:45:43;25.40;99.90
39103;DHT22;24847;48.218;16.414;2023-06-19T06:50:46;25.90;99.90
39103;DHT22;24847;48.218;16.414;2023-06-19T06:55:49;26.40;99.90
39103;DHT22;24847;48.218;16.414;2023-06-19T07:00:51;26.70;99.90
39103;DHT22;24847;48.218;16.414;2023-06-19T07:05:54;26.30;99.90
39103;DHT22;24847;48.218;16.414;2023-06-19T07:10:57;26.30;99.90
39103;DHT22;24847;48.218;16.414;2023-06-19T07:16:00;27.40;99.90
39103;DHT22;24847;48.218;16.414;2023-06-19T07:21:03;27.40;99.90
39103;DHT22;24847;48.218;16.414;2023-06-19T07:26:12;27.60;99.90
39103;DHT22;24847;48.218;16.414;2023-06-19T07:31:14;27.50;99.90
39103;DHT22;24847;48.218;16.414;2023-06-19T07:36:16;28.40;99.90
39103;DHT22;24847;48.218;16.414;2023-06-19T07:41:20;28.10;99.90
39103;DHT22;24847;48.218;16.414;2023-06-19T07:46:22;28.10;99.90
39103;DHT22;24847;48.218;16.414;2023-06-19T07:51:24;28.00;99.90
39103;DHT22;24847;48.218;16.414;2023-06-19T07:56:28;29.40;99.90
39103;DHT22;24847;48.218;16.414;2023-06-19T08:01:30;28.60;99.90
39103;DHT22;24847;48.218;16.414;2023-06-19T08:06:33;28.20;99.90
39103;DHT22;24847;48.218;16.414;2023-06-19T08:11:37;28.80;99.90
39103;DHT22;24847;48.218;16.414;2023-06-19T08:16:39;29.20;99.90
39103;DHT22;24847;48.218;16.414;2023-06-19T08:21:42;29.00;99.90
39103;DHT22;24847;48.218;16.414;2023-06-19T08:26:45;28.60;99.90
39103;DHT22;24847;48.218;16.414;2023-06-19T08:31:51;29.20;99.90
39103;DHT22;24847;48.218;16.414;2023-06-19T08:36:53;29.20;99.90
39103;DHT22;24847;48.218;16.414;2023-06-19T08:41:57;29.80;99.90
39103;DHT22;24847;48.218;16.414;2023-06-19T08:46:59;29.50;99.90
39103;DHT22;24847;48.218;16.414;2023-06-19T08:52:08;30.80;99.90
39103;DHT22;24847;48.218;16.414;2023-06-19T08:57:12;30.90;99.90
39103;DHT22;24847;48.218;16.414;2023-06-19T09:02:15;31.00;99.90
39103;DHT22;24847;48.218;16.414;2023-06-19T09:07:17;30.80;99.90
39103;DHT22;24847;48.218;16.414;2023-06-19T09:12:21;31.40;99.90
39103;DHT22;24847;48.218;16.414;2023-06-19T09:17:24;31.10;99.90
39103;DHT22;24847;48.218;16.414;2023-06-19T09:22:28;30.70;99.90
39103;DHT22;24847;48.218;16.414;2023-06-19T09:27:33;30.70;99.90
39103;DHT22;24847;48.218;16.414;2023-06-19T09:32:35;31.10;99.90
39103;DHT22;24847;48.218;16.414;2023-06-19T09:37:39;31.20;99.90
39103;DHT22;24847;48.218;16.414;2023-06-19T09:42:43;30.80;99.90
39103;DHT22;24847;48.218;16.414;2023-06-19T09:47:47;30.40;99.90
39103;DHT22;24847;48.218;16.414;2023-06-19T09:52:52;30.40;99.90
39103;DHT22;24847;48.218;16.414;2023-06-19T09:57:59;30.50;99.90
39103;DHT22;24847;48.218;16.414;2023-06-19T10:03:02;30.70;99.90
39103;DHT22;24847;48.218;16.414;2023-06-19T10:08:06;30.70;99.90
39103;DHT22;24847;48.218;16.414;2023-06-19T10:13:13;31.40;99.90
39103;DHT22;24847;48.218;16.414;2023-06-19T10:18:17;30.70;99.90
39103;DHT22;24847;48.218;16.414;2023-06-19T10:23:22;30.70;99.90
39103;DHT22;24847;48.218;16.414;2023-06-19T10:28:29;29.70;99.90
39103;DHT22;24847;48.218;16.414;2023-06-19T10:33:33;29.70;99.90
39103;DHT22;24847;48.218;16.414;2023-06-19T10:38:41;29.70;99.90
39103;DHT22;24847;48.218;16.414;2023-06-19T10:43:55;30.00;99.90
39103;DHT22;24847;48.218;16.414;2023-06-19T10:48:59;29.80;99.90
39103;DHT22;24847;48.218;16.414;2023-06-19T10:54:02;29.30;99.90
39103;DHT22;24847;48.218;16.414;2023-06-19T10:59:07;29.40;99.90
39103;DHT22;24847;48.218;16.414;2023-06-19T11:04:11;29.30;99.90
39103;DHT22;24847;48.218;16.414;2023-06-19T11:09:14;29.20;99.90
39103;DHT22;24847;48.218;16.414;2023-06-19T11:14:19;29.40;99.90
39103;DHT22;24847;48.218;16.414;2023-06-19T11:19:22;29.60;99.90
39103;DHT22;24847;48.218;16.414;2023-06-19T11:24:24;29.60;99.90
39103;DHT22;24847;48.218;16.414;2023-06-19T11:29:30;29.30;99.90
39103;DHT22;24847;48.218;16.414;2023-06-19T11:34:34;29.20;99.90
39103;DHT22;24847;48.218;16.414;2023-06-19T11:39:37;29.40;99.90
39103;DHT22;24847;48.218;16.414;2023-06-19T11:44:54;29.30;99.90
39103;DHT22;24847;48.218;16.414;2023-06-19T11:49:56;29.40;99.90
39103;DHT22;24847;48.218;16.414;2023-06-19T11:54:59;29.20;99.90
39103;DHT22;24847;48.218;16.414;2023-06-19T12:00:03;29.20;99.90
39103;DHT22;24847;48.218;16.414;2023-06-19T12:05:10;28.80;99.90
39103;DHT22;24847;48.218;16.414;2023-06-19T12:10:12;29.00;99.90
39103;DHT22;24847;48.218;16.414;2023-06-19T12:15:19;29.00;99.90
39103;DHT22;24847;48.218;16.414;2023-06-19T12:20:21;28.80;99.90
39103;DHT22;24847;48.218;16.414;2023-06-19T12:25:23;28.60;99.90
39103;DHT22;24847;48.218;16.414;2023-06-19T12:30:27;28.70;99.90
39103;DHT22;24847;48.218;16.414;2023-06-19T12:35:29;28.90;99.90
39103;DHT22;24847;48.218;16.414;2023-06-19T12:40:31;28.40;99.90
39103;DHT22;24847;48.218;16.414;2023-06-19T12:45:35;28.30;99.90
39103;DHT22;24847;48.218;16.414;2023-06-19T12:50:37;28.20;99.90
39103;DHT22;24847;48.218;16.414;2023-06-19T12:55:40;28.20;99.90
39103;DHT22;24847;48.218;16.414;2023-06-19T13:00:44;28.50;99.90
39103;DHT22;24847;48.218;16.414;2023-06-19T13:05:47;28.60;99.90
39103;DHT22;24847;48.218;16.414;2023-06-19T13:10:49;28.60;99.90
39103;DHT22;24847;48.218;16.414;2023-06-19T13:15:53;28.30;99.90
39103;DHT22;24847;48.218;16.414;2023-06-19T13:20:55;28.10;99.90
39103;DHT22;24847;48.218;16.414;2023-06-19T13:25:57;28.10;99.90
39103;DHT22;24847;48.218;16.414;2023-06-19T13:31:01;28.10;99.90
39103;DHT22;24847;48.218;16.414;2023-06-19T13:36:04;28.20;99.90
39103;DHT22;24847;48.218;16.414;2023-06-19T13:41:06;28.20;99.90
39103;DHT22;24847;48.218;16.414;2023-06-19T13:46:10;28.20;99.90
39103;DHT22;24847;48.218;16.414;2023-06-19T13:51:12;28.30;99.90
39103;DHT22;24847;48.218;16.414;2023-06-19T13:56:14;28.30;99.90
39103;DHT22;24847;48.218;16.414;2023-06-19T14:01:18;28.40;99.90
39103;DHT22;24847;48.218;16.414;2023-06-19T14:06:21;28.30;99.90
39103;DHT22;24847;48.218;16.414;2023-06-19T14:11:23;28.40;99.90
39103;DHT22;24847;48.218;16.414;2023-06-19T14:16:27;28.50;99.90
39103;DHT22;24847;48.218;16.414;2023-06-19T14:21:29;28.30;99.90
39103;DHT22;24847;48.218;16.414;2023-06-19T14:26:31;28.30;99.90
39103;DHT22;24847;48.218;16.414;2023-06-19T14:31:35;28.30;99.90
39103;DHT22;24847;48.218;16.414;2023-06-19T14:36:38;28.30;99.90
39103;DHT22;24847;48.218;16.414;2023-06-19T14:41:40;28.30;99.90
39103;DHT22;24847;48.218;16.414;2023-06-19T14:46:44;28.30;99.90
39103;DHT22;24847;48.218;16.414;2023-06-19T14:51:46;28.20;99.90
39103;DHT22;24847;48.218;16.414;2023-06-19T14:56:49;28.20;99.90
39103;DHT22;24847;48.218;16.414;2023-06-19T15:01:54;28.30;99.90
39103;DHT22;24847;48.218;16.414;2023-06-19T15:06:56;28.50;99.90
39103;DHT22;24847;48.218;16.414;2023-06-19T15:11:59;28.40;99.90
39103;DHT22;24847;48.218;16.414;2023-06-19T15:17:03;28.20;99.90
39103;DHT22;24847;48.218;16.414;2023-06-19T15:22:06;28.40;99.90
39103;DHT22;24847;48.218;16.414;2023-06-19T15:27:08;28.50;99.90
39103;DHT22;24847;48.218;16.414;2023-06-19T15:32:12;28.30;99.90
39103;DHT22;24847;48.218;16.414;2023-06-19T15:37:14;28.40;99.90
39103;DHT22;24847;48.218;16.414;2023-06-19T15:42:16;28.30;99.90
39103;DHT22;24847;48.218;16.414;2023-06-19T15:47:20;28.70;99.90
39103;DHT22;24847;48.218;16.414;2023-06-19T15:52:22;28.30;99.90
39103;DHT22;24847;48.218;16.414;2023-06-19T15:57:24;28.50;99.90
39103;DHT22;24847;48.218;16.414;2023-06-19T16:02:28;28.80;99.90
39103;DHT22;24847;48.218;16.414;2023-06-19T16:07:30;28.80;99.90
39103;DHT22;24847;48.218;16.414;2023-06-19T16:12:32;28.50;99.90
39103;DHT22;24847;48.218;16.414;2023-06-19T16:17:36;28.30;99.90
39103;DHT22;24847;48.218;16.414;2023-06-19T16:22:39;28.50;99.90
39103;DHT22;24847;48.218;16.414;2023-06-19T16:27:41;28.40;99.90
39103;DHT22;24847;48.218;16.414;2023-06-19T16:32:45;28.50;99.90
39103;DHT22;24847;48.218;16.414;2023-06-19T16:37:47;28.20;99.90
39103;DHT22;24847;48.218;16.414;2023-06-19T16:42:50;28.30;99.90
39103;DHT22;24847;48.218;16.414;2023-06-19T16:47:54;28.20;99.90
39103;DHT22;24847;48.218;16.414;2023-06-19T16:52:56;28.00;99.90
39103;DHT22;24847;48.218;16.414;2023-06-19T16:57:59;28.00;99.90
39103;DHT22;24847;48.218;16.414;2023-06-19T17:03:03;28.00;99.90
39103;DHT22;24847;48.218;16.414;2023-06-19T17:08:08;27.80;99.90
39103;DHT22;24847;48.218;16.414;2023-06-19T17:13:10;27.70;99.90
39103;DHT22;24847;48.218;16.414;2023-06-19T17:18:13;27.50;99.90
39103;DHT22;24847;48.218;16.414;2023-06-19T17:23:16;27.50;99.90
39103;DHT22;24847;48.218;16.414;2023-06-19T17:28:18;27.30;99.90
39103;DHT22;24847;48.218;16.414;2023-06-19T17:33:22;27.50;99.90
39103;DHT22;24847;48.218;16.414;2023-06-19T17:38:24;27.40;99.90
39103;DHT22;24847;48.218;16.414;2023-06-19T17:43:26;27.30;99.90
39103;DHT22;24847;48.218;16.414;2023-06-19T17:48:30;27.40;99.90
39103;DHT22;24847;48.218;16.414;2023-06-19T17:53:34;27.30;99.90
39103;DHT22;24847;48.218;16.414;2023-06-19T17:58:37;27.40;99.90
39103;DHT22;24847;48.218;16.414;2023-06-19T18:03:40;27.50;99.90
39103;DHT22;24847;48.218;16.414;2023-06-19T18:08:43;27.40;99.90
39103;DHT22;24847;48.218;16.414;2023-06-19T18:13:45;27.50;99.90
39103;DHT22;24847;48.218;16.414;2023-06-19T18:18:49;27.60;99.90
39103;DHT22;24847;48.218;16.414;2023-06-19T18:23:51;27.50;99.90
39103;DHT22;24847;48.218;16.414;2023-06-19T18:28:53;27.50;99.90
39103;DHT22;24847;48.218;16.414;2023-06-19T18:33:57;27.40;99.90
39103;DHT22;24847;48.218;16.414;2023-06-19T18:38:59;27.50;99.90
39103;DHT22;24847;48.218;16.414;2023-06-19T18:44:02;27.40;99.90
39103;DHT22;24847;48.218;16.414;2023-06-19T18:49:05;27.20;99.90
39103;DHT22;24847;48.218;16.414;2023-06-19T18:54:07;27.10;99.90
39103;DHT22;24847;48.218;16.414;2023-06-19T18:59:10;27.10;99.90
39103;DHT22;24847;48.218;16.414;2023-06-19T19:04:14;27.10;99.90
39103;DHT22;24847;48.218;16.414;2023-06-19T19:09:19;27.20;99.90
39103;DHT22;24847;48.218;16.414;2023-06-19T19:14:22;27.20;99.90
39103;DHT22;24847;48.218;16.414;2023-06-19T19:19:26;27.00;99.90
39103;DHT22;24847;48.218;16.414;2023-06-19T19:24:28;26.90;99.90
39103;DHT22;24847;48.218;16.414;2023-06-19T19:29:31;26.80;99.90
39103;DHT22;24847;48.218;16.414;2023-06-19T19:34:34;26.80;99.90
39103;DHT22;24847;48.218;16.414;2023-06-19T19:39:36;26.50;99.90
39103;DHT22;24847;48.218;16.414;2023-06-19T19:44:39;26.40;99.90
39103;DHT22;24847;48.218;16.414;2023-06-19T19:49:42;26.10;99.90
39103;DHT22;24847;48.218;16.414;2023-06-19T19:54:45;26.20;99.90
39103;DHT22;24847;48.218;16.414;2023-06-19T19:59:48;26.30;99.90
39103;DHT22;24847;48.218;16.414;2023-06-19T20:04:51;26.20;99.90
39103;DHT22;24847;48.218;16.414;2023-06-19T20:09:53;26.00;99.90
39103;DHT22;24847;48.218;16.414;2023-06-19T20:14:58;26.30;99.90
39103;DHT22;24847;48.218;16.414;2023-06-19T20:20:03;26.10;99.90
39103;DHT22;24847;48.218;16.414;2023-06-19T20:25:08;26.10;99.90
39103;DHT22;24847;48.218;16.414;2023-06-19T20:30:12;26.00;99.90
39103;DHT22;24847;48.218;16.414;2023-06-19T20:35:19;26.00;99.90
39103;DHT22;24847;48.218;16.414;2023-06-19T20:40:22;26.00;99.90
39103;DHT22;24847;48.218;16.414;2023-06-19T20:45:25;26.00;99.90
39103;DHT22;24847;48.218;16.414;2023-06-19T20:50:28;25.80;99.90
39103;DHT22;24847;48.218;16.414;2023-06-19T20:55:31;25.50;99.90
39103;DHT22;24847;48.218;16.414;2023-06-19T21:00:33;25.20;99.90
39103;DHT22;24847;48.218;16.414;2023-06-19T21:05:37;25.00;99.90
39103;DHT22;24847;48.218;16.414;2023-06-19T21:10:47;24.90;99.90
39103;DHT22;24847;48.218;16.414;2023-06-19T21:15:49;24.90;99.90
39103;DHT22;24847;48.218;16.414;2023-06-19T21:20:53;25.10;99.90
39103;DHT22;24847;48.218;16.414;2023-06-19T21:26:01;24.90;99.90
39103;DHT22;24847;48.218;16.414;2023-06-19T21:31:03;25.00;99.90
39103;DHT22;24847;48.218;16.414;2023-06-19T21:36:07;25.10;99.90
39103;DHT22;24847;48.218;16.414;2023-06-19T21:41:12;25.20;99.90
39103;DHT22;24847;48.218;16.414;2023-06-19T21:46:14;25.00;99.90
39103;DHT22;24847;48.218;16.414;2023-06-19T21:51:19;24.80;99.90
39103;DHT22;24847;48.218;16.414;2023-06-19T21:56:21;24.70;99.90
39103;DHT22;24847;48.218;16.414;2023-06-19T22:01:24;24.90;99.90
39103;DHT22;24847;48.218;16.414;2023-06-19T22:06:27;24.90;99.90
39103;DHT22;24847;48.218;16.414;2023-06-19T22:11:30;24.80;99.90
39103;DHT22;24847;48.218;16.414;2023-06-19T22:16:32;24.60;99.90
39103;DHT22;24847;48.218;16.414;2023-06-19T22:21:36;24.50;99.90
39103;DHT22;24847;48.218;16.414;2023-06-19T22:26:42;23.90;99.90
39103;DHT22;24847;48.218;16.414;2023-06-19T22:31:44;23.80;99.90
39103;DHT22;24847;48.218;16.414;2023-06-19T22:36:48;23.90;99.90
39103;DHT22;24847;48.218;16.414;2023-06-19T22:41:50;23.70;99.90
39103;DHT22;24847;48.218;16.414;2023-06-19T22:46:52;23.50;99.90
39103;DHT22;24847;48.218;16.414;2023-06-19T22:51:55;24.10;99.90
39103;DHT22;24847;48.218;16.414;2023-06-19T22:56:58;23.80;99.90
39103;DHT22;24847;48.218;16.414;2023-06-19T23:02:00;23.80;99.90
39103;DHT22;24847;48.218;16.414;2023-06-19T23:07:05;23.80;99.90
39103;DHT22;24847;48.218;16.414;2023-06-19T23:12:08;23.20;99.90
39103;DHT22;24847;48.218;16.414;2023-06-19T23:17:11;23.30;99.90
39103;DHT22;24847;48.218;16.414;2023-06-19T23:22:14;23.60;99.90
39103;DHT22;24847;48.218;16.414;2023-06-19T23:27:17;23.60;99.90
39103;DHT22;24847;48.218;16.414;2023-06-19T23:32:20;23.90;99.90
39103;DHT22;24847;48.218;16.414;2023-06-19T23:37:23;23.90;99.90
39103;DHT22;24847;48.218;16.414;2023-06-19T23:42:27;23.90;99.90
39103;DHT22;24847;48.218;16.414;2023-06-19T23:47:29;23.80;99.90
39103;DHT22;24847;48.218;16.414;2023-06-19T23:52:33;23.90;99.90
39103;DHT22;24847;48.218;16.414;2023-06-19T23:57:35;23.80;99.90
